createdAt,value
2023-05-11T00:00:37.519Z,7.36
2023-05-11T00:03:04.602Z,7.33
2023-05-11T00:05:31.676Z,7.30
2023-05-11T00:07:58.739Z,7.28
2023-05-11T00:10:25.744Z,7.29
2023-05-11T00:12:52.511Z,7.29
2023-05-11T00:15:19.802Z,7.25
2023-05-11T00:17:47.112Z,7.17
2023-05-11T00:20:14.108Z,7.12
2023-05-11T00:22:41.941Z,7.08
2023-05-11T00:25:10.451Z,7.05
2023-05-11T00:27:37.491Z,7.00
2023-05-11T00:30:05.296Z,6.97
2023-05-11T00:32:32.541Z,6.97
2023-05-11T00:34:59.895Z,6.98
2023-05-11T00:37:26.798Z,6.99
2023-05-11T00:39:53.701Z,6.99
2023-05-11T00:42:21.049Z,6.99
2023-05-11T00:44:47.982Z,6.98
2023-05-11T00:47:14.908Z,6.97
2023-05-11T00:49:41.637Z,6.93
2023-05-11T00:52:08.613Z,6.89
2023-05-11T00:54:35.772Z,6.84
2023-05-11T00:57:03.436Z,6.80
2023-05-11T00:59:30.170Z,6.76
2023-05-11T01:01:56.975Z,6.73
2023-05-11T01:04:24.034Z,6.71
2023-05-11T01:06:53.759Z,6.67
2023-05-11T01:09:23.413Z,6.66
2023-05-11T01:11:56.701Z,6.66
2023-05-11T01:14:30.033Z,6.64
2023-05-11T01:16:59.519Z,6.58
2023-05-11T01:19:58.811Z,6.52
2023-05-11T01:22:48.582Z,6.48
2023-05-11T01:25:23.824Z,6.43
2023-05-11T01:28:24.614Z,6.38
2023-05-11T01:30:54.648Z,6.35
2023-05-11T01:33:25.814Z,6.35
2023-05-11T01:35:53.425Z,6.36
2023-05-11T01:38:21.460Z,6.39
2023-05-11T01:40:52.890Z,6.40
2023-05-11T01:43:21.637Z,6.40
2023-05-11T01:45:51.274Z,6.40
2023-05-11T01:48:21.009Z,6.37
2023-05-11T01:50:47.905Z,6.33
2023-05-11T01:53:15.457Z,6.32
2023-05-11T01:55:42.421Z,6.29
2023-05-11T01:58:10.054Z,6.27
2023-05-11T02:00:36.979Z,6.29
2023-05-11T02:03:05.212Z,6.30
2023-05-11T02:05:33.532Z,6.30
2023-05-11T02:08:02.465Z,6.28
2023-05-11T02:10:32.256Z,6.26
2023-05-11T02:12:59.219Z,6.23
2023-05-11T02:15:26.054Z,6.20
2023-05-11T02:17:53.042Z,6.19
2023-05-11T02:20:20.494Z,6.17
2023-05-11T02:22:47.802Z,6.15
2023-05-11T02:25:14.756Z,6.14
2023-05-11T02:27:42.050Z,6.17
2023-05-11T02:30:09.460Z,6.20
2023-05-11T02:32:38.384Z,6.21
2023-05-11T02:35:09.134Z,6.25
2023-05-11T02:37:41.022Z,6.27
2023-05-11T02:40:12.904Z,6.27
2023-05-11T02:42:40.202Z,6.25
2023-05-11T02:45:07.987Z,6.19
2023-05-11T02:47:55.654Z,6.16
2023-05-11T02:50:24.967Z,6.13
2023-05-11T02:52:54.906Z,6.12
2023-05-11T02:55:23.342Z,6.12
2023-05-11T03:01:06.060Z,6.21
2023-05-11T03:03:33.548Z,6.26
2023-05-11T03:06:00.676Z,6.28
2023-05-11T03:08:29.264Z,6.27
2023-05-11T03:10:56.680Z,6.25
2023-05-11T03:13:24.192Z,6.25
2023-05-11T03:15:53.177Z,6.26
2023-05-11T03:18:21.282Z,6.27
2023-05-11T03:20:48.203Z,6.28
2023-05-11T03:23:15.068Z,6.29
2023-05-11T03:25:45.534Z,6.31
2023-05-11T03:28:12.611Z,6.35
2023-05-11T03:30:40.664Z,6.38
2023-05-11T03:33:07.688Z,6.41
2023-05-11T03:35:34.828Z,6.42
2023-05-11T03:38:02.347Z,6.43
2023-05-11T03:40:31.248Z,6.43
2023-05-11T03:42:59.617Z,6.44
2023-05-11T03:45:27.967Z,6.44
2023-05-11T03:47:55.377Z,6.46
2023-05-11T03:50:25.177Z,6.50
2023-05-11T03:52:52.271Z,6.59
2023-05-11T03:55:19.738Z,6.66
2023-05-11T03:57:47.312Z,6.78
2023-05-11T04:00:14.666Z,6.93
2023-05-11T04:02:44.653Z,7.09
2023-05-11T04:05:12.321Z,7.24
2023-05-11T04:07:39.899Z,7.39
2023-05-11T04:10:07.678Z,7.51
2023-05-11T04:12:34.824Z,7.63
2023-05-11T04:15:01.696Z,7.75
2023-05-11T04:17:28.765Z,7.86
2023-05-11T04:19:55.640Z,7.97
2023-05-11T04:22:23.439Z,8.09
2023-05-11T04:24:50.552Z,8.19
2023-05-11T04:27:18.463Z,8.33
2023-05-11T04:29:45.681Z,8.47
2023-05-11T04:32:15.005Z,8.63
2023-05-11T04:34:43.503Z,8.80
2023-05-11T04:37:11.136Z,8.99
2023-05-11T04:39:39.002Z,9.18
2023-05-11T04:42:06.289Z,9.38
2023-05-11T04:44:34.304Z,9.55
2023-05-11T04:47:01.408Z,9.80
2023-05-11T04:49:28.699Z,10.11
2023-05-11T04:51:55.909Z,10.52
2023-05-11T04:54:23.290Z,11.09
2023-05-11T04:56:50.118Z,11.75
2023-05-11T04:59:17.299Z,12.46
2023-05-11T05:01:44.535Z,13.16
2023-05-11T05:04:11.487Z,13.71
2023-05-11T05:06:39.046Z,14.19
2023-05-11T05:09:06.476Z,14.68
2023-05-11T05:11:33.891Z,15.29
2023-05-11T05:14:01.424Z,15.92
2023-05-11T05:16:30.880Z,16.50
2023-05-11T05:18:59.756Z,17.03
2023-05-11T05:21:27.389Z,17.54
2023-05-11T05:25:05.680Z,18.19
2023-05-11T05:27:34.731Z,18.60
2023-05-11T05:30:04.036Z,18.89
2023-05-11T05:32:32.329Z,19.13
2023-05-11T05:34:59.610Z,19.39
2023-05-11T05:37:28.863Z,19.70
2023-05-11T05:39:56.943Z,19.96
2023-05-11T05:42:24.202Z,20.23
2023-05-11T05:44:51.847Z,20.52
2023-05-11T05:47:19.547Z,20.74
2023-05-11T05:49:47.741Z,20.80
2023-05-11T05:52:15.889Z,20.99
2023-05-11T05:54:43.601Z,21.25
2023-05-11T05:57:12.795Z,21.49
2023-05-11T05:59:41.741Z,21.72
2023-05-11T06:02:09.446Z,21.89
2023-05-11T06:04:37.309Z,22.14
2023-05-11T06:07:06.123Z,22.30
2023-05-11T06:09:37.369Z,22.41
2023-05-11T06:12:09.828Z,22.63
2023-05-11T06:14:41.281Z,22.92
2023-05-11T06:17:08.957Z,23.15
2023-05-11T06:19:37.440Z,23.31
2023-05-11T06:22:07.593Z,23.52
2023-05-11T06:24:35.454Z,23.70
2023-05-11T06:27:03.268Z,23.67
2023-05-11T06:30:39.597Z,23.92
2023-05-11T06:33:50.227Z,24.36
2023-05-11T06:36:26.645Z,24.58
2023-05-11T06:38:54.201Z,24.74
2023-05-11T06:41:22.185Z,24.96
2023-05-11T06:43:50.945Z,25.15
2023-05-11T17:41:35.842Z,12.90
2023-05-11T17:44:05.502Z,12.82
2023-05-11T17:46:34.116Z,12.76
2023-05-11T17:49:03.192Z,12.70
2023-05-11T17:51:31.037Z,12.64
2023-05-11T17:54:00.218Z,12.59
2023-05-11T17:56:27.466Z,12.54
2023-05-11T17:58:54.978Z,12.49
2023-05-11T18:01:22.365Z,12.43
2023-05-11T18:03:50.029Z,12.38
2023-05-11T18:06:18.656Z,12.34
2023-05-11T18:08:46.324Z,12.32
2023-05-11T18:11:14.254Z,12.29
2023-05-11T18:13:41.644Z,12.27
2023-05-11T18:16:09.132Z,12.24
2023-05-11T18:18:37.087Z,12.21
2023-05-11T18:21:06.144Z,12.17
2023-05-11T18:23:33.731Z,12.13
2023-05-11T18:26:01.544Z,12.11
2023-05-11T18:28:29.624Z,12.08
2023-05-11T18:30:56.958Z,12.05
2023-05-11T18:33:24.439Z,12.00
2023-05-11T18:35:52.636Z,11.96
2023-05-11T18:38:19.799Z,11.92
2023-05-11T18:40:47.173Z,11.87
2023-05-11T18:43:14.681Z,11.80
2023-05-11T18:45:45.223Z,11.74
2023-05-11T18:48:14.089Z,11.69
2023-05-11T18:50:41.934Z,11.65
2023-05-11T18:53:09.172Z,11.60
2023-05-11T18:55:48.894Z,11.55
2023-05-11T18:58:20.053Z,11.50
2023-05-11T19:00:51.240Z,11.44
2023-05-11T19:03:20.478Z,11.39
2023-05-11T19:05:48.480Z,11.34
2023-05-11T19:08:15.969Z,11.31
2023-05-11T19:10:44.799Z,11.29
2023-05-11T19:13:12.730Z,11.28
2023-05-11T19:15:39.810Z,11.26
2023-05-11T19:18:06.590Z,11.24
2023-05-11T19:20:33.878Z,11.20
2023-05-11T19:23:00.767Z,11.13
2023-05-11T19:25:27.897Z,11.05
2023-05-11T19:27:56.821Z,10.95
2023-05-11T19:30:24.170Z,10.87
2023-05-11T19:32:51.220Z,10.79
2023-05-11T19:35:18.651Z,10.73
2023-05-11T19:37:47.587Z,10.69
2023-05-11T19:42:46.156Z,10.64
2023-05-11T19:45:16.425Z,10.63
2023-05-11T19:47:44.182Z,10.61
2023-05-11T19:50:11.898Z,10.58
2023-05-11T19:52:38.806Z,10.52
2023-05-11T19:55:06.028Z,10.45
2023-05-11T19:57:36.691Z,10.37
2023-05-11T20:00:06.645Z,10.27
2023-05-11T20:02:34.343Z,10.19
2023-05-11T20:05:04.047Z,10.11
2023-05-11T20:07:32.366Z,10.03
2023-05-11T20:09:59.317Z,9.99
2023-05-11T20:12:26.676Z,9.95
2023-05-11T20:14:53.828Z,9.93
2023-05-11T20:17:21.189Z,9.91
2023-05-11T20:19:48.046Z,9.89
2023-05-11T20:22:14.957Z,9.86
2023-05-11T20:24:41.840Z,9.81
2023-05-11T20:27:10.503Z,9.74
2023-05-11T20:29:39.760Z,9.67
2023-05-11T20:32:07.097Z,9.59
2023-05-11T20:34:35.030Z,9.51
2023-05-11T20:37:01.943Z,9.45
2023-05-11T20:39:29.107Z,9.41
2023-05-11T20:41:58.136Z,9.38
2023-05-11T20:44:25.387Z,9.36
2023-05-11T20:46:52.397Z,9.34
2023-05-11T20:49:34.540Z,9.32
2023-05-11T20:52:05.362Z,9.28
2023-05-11T20:54:34.372Z,9.23
2023-05-11T20:57:02.239Z,9.17
2023-05-11T21:02:01.253Z,9.02
2023-05-11T21:04:30.771Z,8.96
2023-05-11T21:06:57.769Z,8.91
2023-05-11T21:09:24.814Z,8.89
2023-05-11T21:11:51.634Z,8.86
2023-05-11T21:14:18.621Z,8.83
2023-05-11T21:16:45.545Z,8.78
2023-05-11T21:19:12.411Z,8.73
2023-05-11T21:21:39.140Z,8.67
2023-05-11T21:24:06.211Z,8.63
2023-05-11T21:26:33.516Z,8.59
2023-05-11T21:29:00.325Z,8.56
2023-05-11T21:31:28.084Z,8.54
2023-05-11T21:33:54.938Z,8.50
2023-05-11T21:36:22.086Z,8.49
2023-05-11T21:38:49.383Z,8.48
2023-05-11T21:41:16.341Z,8.47
2023-05-11T21:43:43.094Z,8.45
2023-05-11T21:46:10.066Z,8.40
2023-05-11T21:48:37.107Z,8.36
2023-05-11T21:51:04.099Z,8.31
2023-05-11T21:53:31.057Z,8.26
2023-05-11T21:55:57.757Z,8.22
2023-05-11T21:58:24.469Z,8.20
2023-05-11T22:00:51.554Z,8.18
2023-05-11T22:03:19.024Z,8.17
2023-05-11T22:05:46.490Z,8.15
2023-05-11T22:08:15.280Z,8.12
2023-05-11T22:10:42.734Z,8.09
2023-05-11T22:13:09.719Z,8.04
2023-05-11T22:15:36.822Z,7.97
2023-05-11T22:18:04.485Z,7.94
2023-05-11T22:20:31.679Z,7.88
2023-05-11T22:22:58.755Z,7.84
2023-05-11T22:25:25.978Z,7.81
2023-05-11T22:27:52.685Z,7.81
2023-05-11T22:30:19.873Z,7.81
2023-05-11T22:32:47.487Z,7.82
2023-05-11T22:35:14.420Z,7.81
2023-05-11T22:37:41.309Z,7.80
2023-05-11T22:40:09.026Z,7.76
2023-05-11T22:42:35.794Z,7.73
2023-05-11T22:45:02.704Z,7.67
2023-05-11T22:47:30.103Z,7.63
2023-05-11T22:49:56.977Z,7.61
2023-05-11T22:52:23.771Z,7.61
2023-05-11T22:54:54.529Z,7.60
2023-05-11T22:57:23.428Z,7.61
2023-05-11T22:59:50.294Z,7.62
2023-05-11T23:02:17.140Z,7.61
2023-05-11T23:04:47.923Z,7.59
2023-05-11T23:07:14.753Z,7.55
2023-05-11T23:09:41.466Z,7.51
2023-05-11T23:12:08.319Z,7.47
2023-05-11T23:14:35.900Z,7.44
2023-05-11T23:17:02.630Z,7.42
2023-05-11T23:19:29.676Z,7.40
2023-05-11T23:21:56.666Z,7.39
2023-05-11T23:24:23.422Z,7.41
2023-05-11T23:26:50.236Z,7.41
2023-05-11T23:29:17.058Z,7.40
2023-05-11T23:31:44.020Z,7.35
2023-05-11T23:34:10.763Z,7.28
2023-05-11T23:36:37.611Z,7.21
2023-05-11T23:39:04.895Z,7.16
2023-05-11T23:41:32.130Z,7.13
2023-05-11T23:44:00.141Z,7.12
2023-05-11T23:46:26.848Z,7.12
2023-05-11T23:48:54.519Z,7.12
2023-05-11T23:51:21.481Z,7.13
2023-05-11T23:53:48.273Z,7.11
2023-05-11T23:56:15.137Z,7.09
2023-05-11T23:58:45.132Z,7.09
